Tributaries of Vltava river

river Berounka - water gauge Beroun

Date and time (UTC) H (cm) Q (m³/s)
8. 2. 2023 17:30 114 31.9
8. 2. 2023 17:00 113 31
8. 2. 2023 16:00 113 31
8. 2. 2023 15:00 111 30
8. 2. 2023 14:00 110 29
8. 2. 2023 13:00 111 30
8. 2. 2023 12:00 115 33
8. 2. 2023 11:00 109 28
8. 2. 2023 10:00 98 21
8. 2. 2023 09:00 100 22
8. 2. 2023 08:00 109 28
8. 2. 2023 07:00 112 30
8. 2. 2023 06:00 113 31
8. 2. 2023 05:00 116 33

H - water level, Q - discharge

river Sázava - water gauge Nespeky

Date and time (UTC) H (cm) Q (m³/s)
8. 2. 2023 17:30 132 36.1
8. 2. 2023 17:00 131 36
8. 2. 2023 16:00 134 37
8. 2. 2023 15:00 136 38
8. 2. 2023 14:00 135 38
8. 2. 2023 13:00 136 38
8. 2. 2023 12:00 136 38
8. 2. 2023 11:00 132 36
8. 2. 2023 10:00 129 35
8. 2. 2023 09:00 129 35
8. 2. 2023 08:00 131 36
8. 2. 2023 07:00 130 35
8. 2. 2023 06:00 133 37
8. 2. 2023 05:00 133 37

H - water level, Q - discharge

river Otava - water gauge Písek

Date and time (UTC) H (cm) Q (m³/s)
8. 2. 2023 17:20 86 19.4
8. 2. 2023 17:00 87 20
8. 2. 2023 16:00 87 20
8. 2. 2023 15:00 87 20
8. 2. 2023 14:00 86 19
8. 2. 2023 13:00 79 17
8. 2. 2023 12:00 76 16
8. 2. 2023 11:00 80 17
8. 2. 2023 10:00 82 18
8. 2. 2023 09:00 79 17
8. 2. 2023 08:00 77 16
8. 2. 2023 07:00 77 16
8. 2. 2023 06:00 77 16
8. 2. 2023 05:00 77 16

H - water level, Q - discharge

river Lužnice - water gauge Bechyně

Date and time (UTC) H (cm) Q (m³/s)
8. 2. 2023 17:20 167 33.5
8. 2. 2023 17:00 173 37
8. 2. 2023 16:00 171 35
8. 2. 2023 15:00 171 35
8. 2. 2023 14:00 169 34
8. 2. 2023 13:00 171 33
8. 2. 2023 12:00 162 30
8. 2. 2023 11:00 158 28
8. 2. 2023 10:00 156 27
8. 2. 2023 09:00 155 27
8. 2. 2023 08:00 158 28
8. 2. 2023 07:00 156 28
8. 2. 2023 06:00 157 28
8. 2. 2023 05:00 159 29

H - water level, Q - discharge
Source data
Labe Basin Vltava Basin Povodí Moravy ČHMÚ